Time;durP1;ratioP1;P1;durP2;ratioP2;P2;SDS_P1;SDS_P2;PMS_P1;PMS_P2;Temp;Humidity;BMP_temperature;BMP_pressure;BME280_temperature;BME280_humidity;BME280_pressure;Samples;Min_cycle;Max_cycle;Signal;HPM_P1;HPM_P2
2024/03/27 00:00:07;;;;;;;2.80;1.30;;;;;;;19.07;43.58;98456.09;4971495;28;20439;-70
2024/03/27 00:02:35;;;;;;;2.58;1.20;;;;;;;19.06;43.38;98451.00;4974715;28;20038;-68
2024/03/27 00:05:00;;;;;;;2.72;1.15;;;;;;;19.08;43.54;98459.56;4979052;28;20030;-70
2024/03/27 00:07:26;;;;;;;4.10;1.30;;;;;;;19.02;43.56;98448.75;4970316;28;20037;-69
2024/03/27 00:09:51;;;;;;;3.67;1.40;;;;;;;19.05;43.89;98452.03;4966284;28;20034;-69
2024/03/27 00:12:17;;;;;;;4.32;1.50;;;;;;;19.05;43.50;98459.94;4975514;28;20058;-66
2024/03/27 00:14:42;;;;;;;3.70;1.50;;;;;;;18.89;43.74;98434.63;4973709;28;20527;-68
2024/03/27 00:17:08;;;;;;;4.40;1.42;;;;;;;18.91;43.34;98433.41;4971249;28;21146;-68
2024/03/27 00:19:33;;;;;;;3.00;1.30;;;;;;;18.98;43.63;98444.88;4972013;28;20472;-67
2024/03/27 00:21:58;;;;;;;5.35;1.40;;;;;;;18.99;43.46;98440.38;4971682;28;20932;-68
2024/03/27 00:24:24;;;;;;;3.85;1.60;;;;;;;18.81;43.49;98411.78;4992049;28;20463;-67
2024/03/27 00:26:49;;;;;;;5.82;1.80;;;;;;;18.88;43.75;98423.22;4973249;28;20821;-67
2024/03/27 00:29:14;;;;;;;4.78;1.60;;;;;;;18.87;43.46;98415.50;4970675;28;20041;-69
2024/03/27 00:31:40;;;;;;;3.03;1.23;;;;;;;18.86;43.43;98409.41;4978799;28;20378;-69
2024/03/27 00:34:05;;;;;;;4.47;1.55;;;;;;;18.94;43.34;98426.94;4969709;28;20450;-67
2024/03/27 00:36:31;;;;;;;3.42;1.50;;;;;;;18.88;43.81;98415.31;4972863;28;20031;-69
2024/03/27 00:38:56;;;;;;;4.75;1.58;;;;;;;18.90;43.48;98417.75;4978232;28;20038;-67
2024/03/27 00:41:21;;;;;;;3.33;1.20;;;;;;;18.85;43.43;98413.06;4972938;28;20031;-70
2024/03/27 00:43:47;;;;;;;5.97;1.73;;;;;;;18.71;43.69;98385.69;4965032;28;20419;-67
2024/03/27 00:46:12;;;;;;;4.30;1.58;;;;;;;18.90;43.49;98420.41;4970115;28;20049;-69
2024/03/27 00:48:37;;;;;;;4.78;1.40;;;;;;;18.74;43.69;98390.59;4978675;28;20089;-67
2024/03/27 00:51:03;;;;;;;4.63;1.50;;;;;;;18.75;43.63;98397.50;4971913;28;20034;-68
2024/03/27 00:53:28;;;;;;;5.20;1.75;;;;;;;18.81;43.62;98406.50;4975696;28;20506;-68
2024/03/27 00:55:58;;;;;;;3.80;1.40;;;;;;;18.75;43.57;98397.50;4977569;28;20037;-68
2024/03/27 00:58:23;;;;;;;3.53;1.38;;;;;;;18.82;43.34;98411.59;4973610;28;20050;-68
2024/03/27 01:00:49;;;;;;;4.22;1.35;;;;;;;18.71;43.76;98384.84;4981986;28;20030;-67
2024/03/27 01:03:15;;;;;;;4.47;1.50;;;;;;;18.70;43.47;98393.81;4972755;28;20041;-67
2024/03/27 01:05:41;;;;;;;3.97;1.98;;;;;;;18.83;43.52;98410.59;4991499;28;20101;-68
2024/03/27 01:08:06;;;;;;;3.97;1.50;;;;;;;18.71;43.55;98395.41;4972187;28;20468;-69
2024/03/27 01:10:32;;;;;;;3.92;1.50;;;;;;;18.83;43.58;98412.38;4972529;28;20038;-69
2024/03/27 01:12:58;;;;;;;4.13;1.58;;;;;;;18.80;43.46;98408.31;4982041;28;20030;-67
2024/03/27 01:15:23;;;;;;;5.75;1.48;;;;;;;18.64;43.43;98384.81;4976918;28;20043;-68
2024/03/27 01:17:50;;;;;;;3.92;1.38;;;;;;;18.80;43.62;98403.03;4963720;28;20033;-67
2024/03/27 01:20:16;;;;;;;4.50;1.70;;;;;;;18.65;43.65;98379.34;4975838;28;20113;-65
2024/03/27 01:22:41;;;;;;;3.78;1.40;;;;;;;18.72;43.68;98395.22;4971252;28;20114;-69
2024/03/27 01:25:08;;;;;;;3.85;1.70;;;;;;;18.65;43.69;98379.34;4973892;28;20030;-67
2024/03/27 01:27:34;;;;;;;6.40;1.45;;;;;;;18.79;43.47;98405.88;4975673;28;20038;-70
2024/03/27 01:29:59;;;;;;;2.95;1.20;;;;;;;18.65;43.64;98386.44;4973877;28;20038;-67
2024/03/27 01:32:24;;;;;;;4.28;1.30;;;;;;;18.63;43.63;98367.34;4973413;28;20061;-71
2024/03/27 01:34:50;;;;;;;5.55;1.45;;;;;;;18.76;43.38;98391.22;4965128;28;20551;-67
2024/03/27 01:37:15;;;;;;;4.50;1.60;;;;;;;18.63;43.34;98370.81;4967379;28;20100;-68
2024/03/27 01:39:40;;;;;;;3.67;1.45;;;;;;;18.71;43.59;98377.78;4977958;28;20041;-68
2024/03/27 01:42:05;;;;;;;3.63;1.40;;;;;;;18.74;43.31;98384.50;4972387;28;20820;-68
2024/03/27 01:44:31;;;;;;;4.10;1.30;;;;;;;18.60;43.48;98370.38;4973101;28;20129;-68
2024/03/27 01:46:56;;;;;;;4.05;1.45;;;;;;;18.64;43.67;98372.44;4976337;28;20259;-69
2024/03/27 01:49:22;;;;;;;5.93;1.55;;;;;;;18.59;43.46;98351.06;4971954;28;20476;-68
2024/03/27 01:51:48;;;;;;;2.90;1.30;;;;;;;18.71;43.50;98367.22;4976137;28;20153;-67
2024/03/27 01:54:16;;;;;;;3.53;1.35;;;;;;;18.62;43.45;98357.81;4971086;28;20130;-67
2024/03/27 01:56:42;;;;;;;4.30;1.45;;;;;;;18.48;43.33;98325.19;4973717;28;20034;-70
2024/03/27 01:59:08;;;;;;;3.53;1.60;;;;;;;18.71;43.58;98364.59;4976456;28;20496;-67
2024/03/27 02:01:35;;;;;;;4.53;1.85;;;;;;;18.70;43.39;98364.78;4970961;28;20525;-68
2024/03/27 02:04:00;;;;;;;5.07;1.52;;;;;;;18.61;43.37;98348.25;4965972;28;20038;-67
2024/03/27 02:06:26;;;;;;;3.47;1.60;;;;;;;18.54;43.25;98336.81;4973677;28;20081;-69
2024/03/27 02:08:52;;;;;;;2.97;1.55;;;;;;;18.60;43.47;98344.78;4995579;28;20609;-67
2024/03/27 02:11:17;;;;;;;3.85;1.50;;;;;;;18.58;43.72;98346.81;4972066;28;20242;-68
2024/03/27 02:13:46;;;;;;;3.78;1.40;;;;;;;18.64;43.69;98346.06;4976336;28;20035;-68
2024/03/27 02:16:12;;;;;;;4.32;1.45;;;;;;;18.57;43.48;98334.63;4977934;28;20038;-68
2024/03/27 02:18:37;;;;;;;4.35;1.65;;;;;;;18.49;43.54;98316.28;4979410;28;20543;-67
2024/03/27 02:21:03;;;;;;;5.30;1.70;;;;;;;18.54;43.51;98334.19;4973558;28;20048;-68
2024/03/27 02:23:34;;;;;;;4.50;1.38;;;;;;;18.58;43.32;98335.44;4977354;28;20090;-69
2024/03/27 02:26:08;;;;;;;3.65;1.40;;;;;;;18.61;43.46;98349.06;4966026;28;20135;-69
2024/03/27 02:28:33;;;;;;;3.77;1.60;;;;;;;18.62;43.30;98353.34;4972435;28;20043;-68
2024/03/27 02:30:58;;;;;;;5.13;1.75;;;;;;;18.61;43.42;98350.88;4969369;28;20027;-69
2024/03/27 02:33:24;;;;;;;4.90;1.73;;;;;;;18.50;43.36;98331.13;4979493;28;20030;-68
2024/03/27 02:35:50;;;;;;;3.50;1.40;;;;;;;18.56;43.36;98337.44;4972971;28;20034;-69
2024/03/27 02:38:15;;;;;;;4.10;1.63;;;;;;;18.61;43.38;98345.59;4977468;28;20625;-68
2024/03/27 02:40:40;;;;;;;4.22;1.60;;;;;;;18.60;43.23;98330.81;4975268;28;20034;-68
2024/03/27 02:43:05;;;;;;;3.17;1.50;;;;;;;18.62;43.28;98329.59;4975389;28;20145;-67
2024/03/27 02:45:31;;;;;;;3.13;1.40;;;;;;;18.62;43.53;98336.69;4974659;28;20042;-70
2024/03/27 02:47:56;;;;;;;5.78;1.58;;;;;;;18.49;43.29;98319.72;4967425;28;20066;-69
2024/03/27 02:50:22;;;;;;;4.55;1.40;;;;;;;18.49;43.49;98313.66;4967256;28;20039;-70
2024/03/27 02:52:47;;;;;;;4.20;1.70;;;;;;;18.43;43.36;98299.38;4964616;28;20034;-68
2024/03/27 02:55:12;;;;;;;4.13;1.60;;;;;;;18.51;43.18;98310.81;4985553;28;20031;-70
2024/03/27 02:57:37;;;;;;;4.30;1.60;;;;;;;18.50;43.52;98312.66;4965654;28;20317;-67
2024/03/27 03:00:07;;;;;;;4.40;1.70;;;;;;;18.44;43.54;98323.94;4977702;28;20038;-69
2024/03/27 03:02:33;;;;;;;4.57;1.73;;;;;;;18.57;43.43;98342.53;4969024;28;20030;-70
2024/03/27 03:04:58;;;;;;;3.95;1.33;;;;;;;18.52;43.42;98334.38;4970844;28;20037;-68
2024/03/27 03:07:23;;;;;;;5.38;1.65;;;;;;;18.52;43.36;98347.56;4976266;28;20393;-70
2024/03/27 03:09:48;;;;;;;4.18;1.60;;;;;;;18.51;43.17;98350.38;4971632;28;20034;-68
2024/03/27 03:12:14;;;;;;;3.55;1.33;;;;;;;18.48;43.15;98341.84;4978112;28;20816;-71
2024/03/27 03:14:39;;;;;;;2.92;1.30;;;;;;;18.38;43.37;98336.06;4971264;28;20034;-67
2024/03/27 03:17:04;;;;;;;3.63;1.20;;;;;;;18.40;43.29;98344.59;4978301;28;20547;-69
2024/03/27 03:19:30;;;;;;;4.82;1.40;;;;;;;18.52;43.45;98366.03;4972882;28;20031;-66
2024/03/27 03:21:55;;;;;;;2.95;1.10;;;;;;;18.51;43.26;98366.22;4966670;28;20047;-67
2024/03/27 03:24:20;;;;;;;3.37;1.30;;;;;;;18.51;43.29;98374.94;4976404;28;20107;-67
2024/03/27 03:26:46;;;;;;;2.65;1.20;;;;;;;18.30;43.16;98344.88;4973455;28;20326;-67
2024/03/27 03:29:11;;;;;;;3.70;1.00;;;;;;;18.37;43.37;98355.50;4968212;28;20031;-67
2024/03/27 03:31:36;;;;;;;3.15;1.20;;;;;;;18.49;43.05;98377.75;4973730;28;20053;-67
2024/03/27 03:34:02;;;;;;;2.55;1.00;;;;;;;18.39;43.10;98350.88;4969040;28;20038;-68
2024/03/27 03:36:27;;;;;;;3.33;1.10;;;;;;;18.42;43.11;98368.97;4971567;28;20476;-67
2024/03/27 03:38:52;;;;;;;1.93;0.93;;;;;;;18.46;43.04;98366.75;4976505;28;20039;-68
2024/03/27 03:41:17;;;;;;;3.33;1.10;;;;;;;18.49;43.09;98364.56;4967475;28;20596;-68
2024/03/27 03:43:43;;;;;;;2.53;1.02;;;;;;;18.43;43.13;98357.41;4965716;28;20030;-67
2024/03/27 03:46:08;;;;;;;2.78;1.20;;;;;;;18.29;43.01;98335.38;4963478;28;20070;-67
2024/03/27 03:48:33;;;;;;;2.08;1.00;;;;;;;18.49;43.15;98361.94;4968891;28;20381;-67
2024/03/27 03:50:58;;;;;;;2.17;1.10;;;;;;;18.46;42.96;98349.13;4971781;28;20074;-67
2024/03/27 03:53:24;;;;;;;2.25;1.10;;;;;;;18.43;42.91;98340.75;4976297;28;20054;-70
2024/03/27 03:55:49;;;;;;;2.10;0.90;;;;;;;18.48;42.75;98347.13;4976664;28;20470;-68
2024/03/27 03:58:16;;;;;;;2.95;1.10;;;;;;;18.46;42.92;98332.47;4971056;28;20038;-69
2024/03/27 04:00:41;;;;;;;1.95;0.90;;;;;;;18.46;42.98;98325.38;4974578;28;20034;-68
2024/03/27 04:03:06;;;;;;;4.13;1.00;;;;;;;18.40;42.87;98305.03;4984461;28;20037;-69
2024/03/27 04:05:32;;;;;;;2.60;1.33;;;;;;;18.42;42.87;98313.59;4964599;28;20041;-67
2024/03/27 04:07:57;;;;;;;3.30;0.98;;;;;;;18.34;43.02;98295.25;4977933;28;20109;-69
2024/03/27 04:10:23;;;;;;;2.60;1.10;;;;;;;18.43;42.91;98303.84;4974225;28;20234;-68
2024/03/27 04:12:48;;;;;;;1.48;0.82;;;;;;;18.41;42.80;98308.50;4977716;28;20488;-69
2024/03/27 04:15:14;;;;;;;3.05;1.20;;;;;;;18.39;43.04;98307.84;4972660;28;20514;-68
2024/03/27 04:17:40;;;;;;;3.17;1.10;;;;;;;18.04;43.00;98258.44;4971023;28;20035;-67
2024/03/27 04:20:12;;;;;;;2.42;1.10;;;;;;;18.35;43.11;98309.25;4972807;28;20030;-68
2024/03/27 04:22:37;;;;;;;3.40;0.95;;;;;;;18.34;42.80;98308.44;4973729;28;20070;-67
2024/03/27 04:25:04;;;;;;;2.15;1.00;;;;;;;18.42;43.07;98325.94;4963556;28;20837;-68
2024/03/27 04:27:29;;;;;;;2.25;0.90;;;;;;;18.29;42.85;98309.00;4973482;28;20034;-69
2024/03/27 04:29:56;;;;;;;2.40;1.02;;;;;;;18.27;42.74;98310.97;4965409;28;20042;-68
2024/03/27 04:32:21;;;;;;;2.67;1.10;;;;;;;18.23;43.14;98304.47;4969030;28;20464;-68
2024/03/27 04:34:47;;;;;;;1.83;0.82;;;;;;;18.34;42.78;98320.78;4972715;28;20035;-67
2024/03/27 04:37:12;;;;;;;1.92;0.85;;;;;;;18.36;42.96;98332.78;4973196;28;20492;-67
2024/03/27 04:39:38;;;;;;;2.05;0.88;;;;;;;18.33;43.06;98337.63;4972446;28;20101;-69
2024/03/27 04:42:03;;;;;;;1.85;0.88;;;;;;;18.30;42.85;98339.63;4976854;28;20038;-67
2024/03/27 04:44:29;;;;;;;2.92;1.05;;;;;;;18.37;43.18;98347.59;4973897;28;20373;-67
2024/03/27 04:46:54;;;;;;;1.80;0.82;;;;;;;18.29;43.12;98339.81;4992565;28;20381;-70
2024/03/27 04:49:19;;;;;;;1.98;0.80;;;;;;;18.25;42.89;98330.66;4974013;28;20042;-67
2024/03/27 04:51:44;;;;;;;1.80;0.90;;;;;;;18.30;42.93;98347.53;4978316;28;20042;-69
2024/03/27 04:54:10;;;;;;;1.60;0.90;;;;;;;18.36;43.21;98353.06;4973277;28;20040;-68
2024/03/27 04:56:35;;;;;;;2.55;0.95;;;;;;;18.34;43.11;98360.34;4972518;28;20037;-69
2024/03/27 04:59:00;;;;;;;1.65;0.88;;;;;;;18.38;42.97;98375.59;4967919;28;20671;-69
2024/03/27 05:01:26;;;;;;;1.60;0.85;;;;;;;18.36;42.95;98374.97;4975656;28;20034;-69
2024/03/27 05:03:51;;;;;;;2.00;0.90;;;;;;;18.34;43.21;98382.28;4964540;28;20046;-68
2024/03/27 05:06:16;;;;;;;1.83;0.75;;;;;;;18.24;43.11;98373.81;4987952;28;20036;-69
2024/03/27 05:08:41;;;;;;;1.90;0.70;;;;;;;18.19;43.13;98379.66;4981668;28;20049;-69
2024/03/27 05:11:07;;;;;;;2.67;0.93;;;;;;;18.22;43.27;98371.38;4969799;28;20117;-68
2024/03/27 05:13:32;;;;;;;1.77;0.80;;;;;;;18.25;43.17;98386.00;4972682;28;20073;-69
2024/03/27 05:15:58;;;;;;;1.95;0.77;;;;;;;18.21;43.40;98374.19;4965995;28;20069;-69
2024/03/27 05:18:23;;;;;;;2.50;0.90;;;;;;;18.24;43.15;98387.00;4975526;28;20070;-67
2024/03/27 05:20:48;;;;;;;1.77;0.75;;;;;;;18.30;43.24;98394.19;4979521;28;20026;-68
2024/03/27 05:23:14;;;;;;;1.38;0.68;;;;;;;18.21;43.25;98376.81;4976921;28;20082;-69
2024/03/27 05:25:39;;;;;;;1.77;0.80;;;;;;;18.29;43.10;98401.28;4988032;28;20038;-69
2024/03/27 05:28:04;;;;;;;1.75;0.90;;;;;;;18.21;43.01;98398.72;4969192;28;20043;-67
2024/03/27 05:30:32;;;;;;;1.63;0.75;;;;;;;18.17;43.34;98392.19;4968367;28;20097;-68
2024/03/27 05:32:57;;;;;;;1.83;0.80;;;;;;;18.24;43.37;98397.53;4972687;28;20050;-67
2024/03/27 05:35:22;;;;;;;1.35;0.70;;;;;;;18.28;43.34;98412.81;4975728;28;20404;-69
2024/03/27 05:37:48;;;;;;;1.40;0.63;;;;;;;18.24;43.32;98414.19;4969741;28;20026;-68
2024/03/27 05:40:13;;;;;;;1.48;0.63;;;;;;;18.30;43.43;98421.34;4973633;28;20066;-67
2024/03/27 05:42:40;;;;;;;1.48;0.70;;;;;;;18.11;43.46;98401.66;4969188;28;20183;-67
2024/03/27 05:45:05;;;;;;;2.00;0.80;;;;;;;18.26;43.07;98425.38;4974156;28;20060;-70
2024/03/27 05:47:30;;;;;;;1.35;0.70;;;;;;;18.17;43.08;98421.19;4968879;28;20026;-68
2024/03/27 05:49:56;;;;;;;1.15;0.60;;;;;;;18.12;43.39;98413.84;4978839;28;20096;-68
2024/03/27 05:52:22;;;;;;;1.67;0.80;;;;;;;18.26;43.11;98445.63;4981887;28;20030;-68
2024/03/27 05:54:47;;;;;;;2.00;0.73;;;;;;;18.30;43.26;98453.00;4991329;28;20049;-70
2024/03/27 05:57:13;;;;;;;1.20;0.70;;;;;;;18.27;43.03;98434.09;4980979;28;20547;-67
2024/03/27 05:59:38;;;;;;;1.55;0.75;;;;;;;18.19;43.17;98442.09;4977010;28;20031;-70
2024/03/27 06:02:03;;;;;;;1.38;0.70;;;;;;;18.17;43.13;98441.47;4971004;28;20038;-66
2024/03/27 06:04:29;;;;;;;1.10;0.68;;;;;;;18.16;43.10;98448.53;4962271;28;20113;-68
2024/03/27 06:06:54;;;;;;;1.10;0.70;;;;;;;18.17;42.88;98452.03;4969680;28;20073;-67
2024/03/27 06:09:19;;;;;;;2.08;0.70;;;;;;;18.25;42.96;98473.81;4965904;28;20042;-67
2024/03/27 06:11:44;;;;;;;1.35;0.70;;;;;;;18.25;42.97;98473.81;4973166;28;20118;-67
2024/03/27 06:14:10;;;;;;;1.63;0.70;;;;;;;18.27;43.17;98484.19;4969115;28;20097;-67
2024/03/27 06:16:35;;;;;;;1.58;0.80;;;;;;;18.18;42.77;98469.47;4969244;28;20290;-67
2024/03/27 06:19:00;;;;;;;1.48;0.70;;;;;;;18.25;42.83;98473.00;4965362;28;20919;-67
2024/03/27 06:21:25;;;;;;;1.35;0.70;;;;;;;18.20;42.74;98465.66;4964940;28;20042;-68
2024/03/27 06:23:51;;;;;;;1.45;0.75;;;;;;;18.25;42.89;98479.09;4982903;28;20030;-70
2024/03/27 06:26:16;;;;;;;1.63;0.70;;;;;;;18.26;42.97;98486.00;4980032;28;20377;-68
2024/03/27 06:28:42;;;;;;;1.92;0.90;;;;;;;18.27;42.69;98476.28;4963373;28;20651;-68
2024/03/27 06:31:08;;;;;;;1.55;0.70;;;;;;;18.27;43.08;98473.63;4971431;28;20027;-67
2024/03/27 06:33:34;;;;;;;1.00;0.50;;;;;;;18.21;42.67;98474.38;4971390;28;20030;-67
2024/03/27 06:35:59;;;;;;;0.65;0.50;;;;;;;18.20;42.67;98473.56;4961593;28;20058;-68
2024/03/27 06:38:27;;;;;;;1.30;0.60;;;;;;;18.21;42.93;98469.91;4968430;28;20035;-67
2024/03/27 06:40:52;;;;;;;0.80;0.40;;;;;;;18.30;42.85;98482.00;4963890;28;20512;-68
2024/03/27 06:43:20;;;;;;;0.88;0.40;;;;;;;18.36;42.96;98496.28;4971382;28;20038;-67
2024/03/27 06:45:48;;;;;;;1.95;0.60;;;;;;;18.20;43.11;98472.72;4966995;28;20038;-67
2024/03/27 06:48:15;;;;;;;1.33;0.60;;;;;;;18.39;43.04;98517.00;4972971;28;20039;-69
2024/03/27 06:50:41;;;;;;;0.80;0.50;;;;;;;18.33;43.13;98509.81;4981385;28;20137;-69
2024/03/27 06:53:06;;;;;;;1.38;0.50;;;;;;;18.40;43.15;98518.63;4970831;28;20030;-67
2024/03/27 06:55:32;;;;;;;1.23;0.57;;;;;;;18.40;43.01;98529.19;4987094;28;20038;-67
2024/03/27 06:57:57;;;;;;;1.27;0.52;;;;;;;18.42;43.09;98531.63;4967912;28;20031;-68
2024/03/27 07:00:22;;;;;;;0.73;0.50;;;;;;;18.45;43.30;98542.66;4974364;28;20057;-69
2024/03/27 07:02:49;;;;;;;2.55;0.60;;;;;;;18.37;42.91;98529.53;4974461;28;20124;-68
2024/03/27 07:05:15;;;;;;;1.23;0.50;;;;;;;18.38;42.97;98525.91;4972975;28;20042;-67
2024/03/27 07:07:40;;;;;;;0.90;0.50;;;;;;;18.29;42.75;98506.75;4960925;28;20450;-68
2024/03/27 07:10:06;;;;;;;0.88;0.40;;;;;;;18.41;42.68;98528.19;4973621;28;20082;-67
2024/03/27 07:12:32;;;;;;;0.95;0.50;;;;;;;18.52;43.03;98542.75;4961336;28;20118;-68
2024/03/27 07:14:57;;;;;;;1.10;0.55;;;;;;;18.52;42.79;98547.19;4971800;28;20162;-67
2024/03/27 07:17:22;;;;;;;1.20;0.57;;;;;;;18.53;42.58;98554.09;4979246;28;20035;-69
2024/03/27 07:19:48;;;;;;;0.52;0.40;;;;;;;18.51;42.93;98559.56;4976071;28;20351;-66
2024/03/27 07:22:15;;;;;;;0.95;0.40;;;;;;;18.43;42.64;98535.91;4978609;28;20197;-67
2024/03/27 07:24:40;;;;;;;1.75;0.60;;;;;;;18.44;42.80;98546.28;4965765;28;20581;-68
2024/03/27 07:27:05;;;;;;;0.70;0.40;;;;;;;18.47;42.92;98548.56;4975555;28;20046;-68
2024/03/27 07:29:31;;;;;;;1.60;0.80;;;;;;;18.52;42.73;98565.63;4971021;28;20072;-67
2024/03/27 07:31:56;;;;;;;1.27;0.50;;;;;;;18.53;42.65;98567.28;4973191;28;20027;-69
2024/03/27 07:34:22;;;;;;;1.95;0.65;;;;;;;18.55;42.75;98562.63;4976937;28;20125;-68
2024/03/27 07:36:47;;;;;;;1.67;0.60;;;;;;;18.50;42.76;98555.31;4978987;28;20084;-68
2024/03/27 07:39:12;;;;;;;1.10;0.50;;;;;;;18.55;42.51;98555.56;4984277;28;20027;-68
2024/03/27 07:41:38;;;;;;;0.80;0.50;;;;;;;18.55;42.87;98542.38;4974375;28;20089;-69
2024/03/27 07:44:03;;;;;;;1.35;0.60;;;;;;;18.48;42.88;98552.84;4967552;28;20039;-68
2024/03/27 07:46:28;;;;;;;2.70;0.60;;;;;;;18.58;43.06;98572.81;4976416;28;20403;-69
2024/03/27 07:48:55;;;;;;;2.35;0.68;;;;;;;18.53;42.93;98554.91;4961857;28;20062;-68
2024/03/27 07:51:20;;;;;;;5.57;0.90;;;;;;;18.61;43.05;98560.13;4969721;28;20146;-69
2024/03/27 07:53:46;;;;;;;1.30;0.63;;;;;;;18.53;42.92;98552.28;4977278;28;20117;-70
2024/03/27 07:56:12;;;;;;;2.30;0.68;;;;;;;18.50;43.11;98534.19;4972609;28;20038;-68
2024/03/27 07:58:38;;;;;;;1.02;0.60;;;;;;;18.62;43.24;98567.00;4977154;28;20042;-68
2024/03/27 08:01:03;;;;;;;1.92;0.60;;;;;;;18.63;43.36;98552.03;4967655;28;20030;-69
2024/03/27 08:03:30;;;;;;;2.72;0.90;;;;;;;18.63;43.39;98557.28;4969956;28;20070;-69
2024/03/27 08:05:56;;;;;;;1.35;0.60;;;;;;;18.55;43.56;98547.66;4978429;28;20045;-68
2024/03/27 08:08:21;;;;;;;4.38;0.88;;;;;;;18.64;43.48;98562.38;4968767;28;20031;-69
2024/03/27 08:10:57;;;;;;;1.27;0.60;;;;;;;18.68;43.40;98561.00;4969841;28;20407;-68
2024/03/27 08:13:22;;;;;;;1.15;0.60;;;;;;;18.57;43.66;98544.84;4965166;28;20039;-70
2024/03/27 08:15:48;;;;;;;2.08;0.63;;;;;;;18.49;43.38;98532.56;4971937;28;20027;-68
2024/03/27 08:18:13;;;;;;;2.55;0.70;;;;;;;18.60;43.45;98555.03;4973532;28;20053;-71
2024/03/27 08:20:38;;;;;;;1.25;0.50;;;;;;;18.66;43.68;98567.47;4971479;28;20116;-68
2024/03/27 08:23:04;;;;;;;1.73;0.60;;;;;;;18.44;43.64;98519.91;4988581;28;20133;-68
2024/03/27 08:25:32;;;;;;;1.55;0.60;;;;;;;18.59;43.76;98546.28;4979503;28;20030;-71
2024/03/27 08:27:58;;;;;;;1.98;0.68;;;;;;;18.71;43.80;98564.28;4971357;28;20503;-68
2024/03/27 08:30:24;;;;;;;2.55;0.70;;;;;;;18.58;43.76;98544.66;4978680;28;20046;-69
2024/03/27 08:32:49;;;;;;;1.38;0.63;;;;;;;18.68;43.59;98549.66;4974608;28;20150;-69
2024/03/27 08:35:14;;;;;;;1.27;0.60;;;;;;;18.72;43.80;98561.44;4977776;28;20392;-69
2024/03/27 08:37:40;;;;;;;3.17;0.60;;;;;;;18.68;43.80;98549.66;4973536;28;20145;-68
2024/03/27 08:40:09;;;;;;;3.57;0.70;;;;;;;18.71;43.88;98565.09;4963413;28;20487;-68
2024/03/27 08:42:34;;;;;;;1.67;0.73;;;;;;;18.73;44.40;98573.66;4978439;28;20283;-68
2024/03/27 08:44:59;;;;;;;2.33;0.60;;;;;;;18.73;44.36;98568.38;4972141;28;20030;-68
2024/03/27 08:47:25;;;;;;;1.48;0.52;;;;;;;18.71;44.02;98575.66;4972159;28;20031;-68
2024/03/27 08:49:51;;;;;;;1.67;0.65;;;;;;;18.73;44.06;98589.47;4977885;28;20031;-68
2024/03/27 08:52:16;;;;;;;3.28;0.90;;;;;;;18.73;44.00;98578.94;4977797;28;20038;-71
2024/03/27 08:54:42;;;;;;;1.85;0.65;;;;;;;18.63;43.93;98573.94;4976496;28;20038;-70
2024/03/27 08:57:10;;;;;;;3.88;1.00;;;;;;;18.69;43.67;98582.91;4973769;28;20372;-67
2024/03/27 08:59:35;;;;;;;2.60;0.80;;;;;;;18.58;44.00;98572.81;4966251;28;20105;-68
2024/03/27 09:02:02;;;;;;;1.48;0.57;;;;;;;18.61;43.75;98590.94;4970750;28;20050;-71
2024/03/27 09:04:27;;;;;;;1.17;0.55;;;;;;;18.59;44.10;98592.94;4965053;28;20023;-68
2024/03/27 09:06:53;;;;;;;3.05;0.75;;;;;;;18.74;44.33;98614.88;4969659;28;20546;-69
2024/03/27 09:09:18;;;;;;;3.35;0.60;;;;;;;18.57;44.43;98585.22;4966811;28;20045;-67
2024/03/27 09:11:43;;;;;;;2.05;0.70;;;;;;;18.62;44.54;98589.94;4973164;28;20827;-69
2024/03/27 09:14:09;;;;;;;1.52;0.70;;;;;;;18.74;44.47;98609.59;4979568;28;20046;-67
2024/03/27 09:16:34;;;;;;;1.80;0.70;;;;;;;18.62;44.61;98587.31;4964061;28;20037;-64
2024/03/27 09:18:59;;;;;;;2.05;0.80;;;;;;;18.64;44.38;98595.84;4972626;28;20065;-69
2024/03/27 09:21:25;;;;;;;2.83;0.80;;;;;;;18.68;44.46;98592.66;4968351;28;20047;-67
2024/03/27 09:23:50;;;;;;;2.15;0.77;;;;;;;18.69;44.59;98596.13;4969822;28;20037;-68
2024/03/27 09:26:15;;;;;;;1.90;0.70;;;;;;;18.66;44.77;98593.88;4969142;28;20038;-68
2024/03/27 09:28:41;;;;;;;4.78;0.95;;;;;;;18.67;44.72;98593.69;4969986;28;20264;-69
2024/03/27 09:31:07;;;;;;;2.90;1.10;;;;;;;18.80;44.81;98615.94;4976007;28;20061;-69
2024/03/27 09:33:32;;;;;;;1.65;0.70;;;;;;;18.53;44.46;98577.84;4979021;28;20035;-66
2024/03/27 09:35:57;;;;;;;2.83;0.70;;;;;;;18.72;44.43;98600.22;4970409;28;20073;-68
2024/03/27 09:38:23;;;;;;;2.60;0.70;;;;;;;18.75;44.76;98615.69;4980003;28;20130;-68
2024/03/27 09:40:55;;;;;;;1.57;0.70;;;;;;;18.76;44.96;98618.13;4973135;28;20034;-69
2024/03/27 09:43:22;;;;;;;4.13;1.42;;;;;;;18.72;44.81;98616.84;4978023;28;20267;-67
2024/03/27 09:45:48;;;;;;;1.92;0.90;;;;;;;18.64;45.02;98614.31;4978878;28;20046;-67
2024/03/27 09:48:14;;;;;;;3.10;1.00;;;;;;;18.67;44.54;98617.44;4979483;28;20142;-68
2024/03/27 09:50:39;;;;;;;2.30;0.80;;;;;;;18.66;44.68;98622.88;4977113;28;20646;-68
2024/03/27 09:53:08;;;;;;;0.95;0.55;;;;;;;18.65;44.90;98631.78;4970362;28;20034;-66
2024/03/27 09:55:35;;;;;;;2.08;0.80;;;;;;;18.73;44.87;98642.25;4970205;28;20034;-66
2024/03/27 09:58:05;;;;;;;2.70;0.90;;;;;;;18.66;44.95;98642.16;4969183;28;20084;-68
2024/03/27 10:00:33;;;;;;;3.25;0.90;;;;;;;18.76;44.96;98659.56;4973267;28;20110;-68
2024/03/27 10:02:59;;;;;;;3.10;0.98;;;;;;;18.77;44.83;98663.81;4974108;28;20038;-69
2024/03/27 10:05:26;;;;;;;2.97;1.20;;;;;;;18.68;44.64;98650.72;4963664;28;20050;-69
2024/03/27 10:07:52;;;;;;;2.28;0.90;;;;;;;18.74;44.86;98667.66;4959675;28;20030;-68
2024/03/27 10:10:18;;;;;;;2.90;0.80;;;;;;;18.52;44.54;98627.16;4966910;28;20031;-69
2024/03/27 10:12:43;;;;;;;2.47;1.00;;;;;;;18.65;44.61;98652.91;4978205;28;20093;-67
2024/03/27 10:15:10;;;;;;;3.90;0.90;;;;;;;18.63;44.55;98641.72;4966381;28;20042;-67
2024/03/27 10:17:35;;;;;;;3.05;0.93;;;;;;;18.62;44.69;98643.50;4972595;28;20034;-68
2024/03/27 10:20:01;;;;;;;3.63;1.00;;;;;;;18.65;44.76;98637.06;4974849;28;20092;-70
2024/03/27 10:22:29;;;;;;;3.53;1.15;;;;;;;18.73;44.89;98654.63;4966047;28;20375;-68
2024/03/27 10:24:55;;;;;;;2.83;0.90;;;;;;;18.77;44.74;98659.38;4969446;28;20034;-69
2024/03/27 10:27:20;;;;;;;2.18;0.90;;;;;;;18.70;45.03;98647.06;4301783;28;10000800;-68
2024/03/27 10:29:46;;;;;;;2.30;1.00;;;;;;;18.77;45.10;98656.72;3378735;28;26309;-68
2024/03/27 10:32:12;;;;;;;4.40;1.17;;;;;;;18.64;44.85;98638.91;4174662;28;87883;-68
2024/03/27 10:34:39;;;;;;;3.60;1.00;;;;;;;18.78;44.80;98668.91;3334099;28;10307977;-66
2024/03/27 10:37:10;;;;;;;2.88;1.33;;;;;;;18.80;44.98;98677.47;3964403;28;36344;-68
2024/03/27 10:39:40;;;;;;;2.30;1.13;;;;;;;18.72;45.26;98666.19;2132290;28;10005698;-70
2024/03/27 10:42:11;;;;;;;4.25;0.93;;;;;;;18.77;45.13;98675.19;4912675;28;20051;-69
2024/03/27 10:44:37;;;;;;;2.40;0.82;;;;;;;18.79;44.98;98680.31;4924412;28;20047;-68
2024/03/27 10:47:05;;;;;;;3.97;1.10;;;;;;;18.83;44.87;98681.56;4924287;28;20067;-69
2024/03/27 10:49:30;;;;;;;5.50;1.38;;;;;;;18.84;45.12;98678.78;4941500;28;20548;-69
2024/03/27 10:51:57;;;;;;;2.55;1.10;;;;;;;18.70;45.03;98647.06;4941117;28;20027;-69
2024/03/27 10:54:24;;;;;;;3.03;1.20;;;;;;;18.84;45.19;98676.13;4940679;28;20034;-70
2024/03/27 10:56:49;;;;;;;3.75;1.15;;;;;;;18.80;44.96;98666.94;4941060;28;20035;-69
2024/03/27 10:59:15;;;;;;;2.80;1.10;;;;;;;18.80;45.37;98672.19;4940248;28;20085;-67
2024/03/27 11:01:41;;;;;;;2.58;1.00;;;;;;;18.82;45.04;98672.84;4940463;28;20121;-66
2024/03/27 11:04:08;;;;;;;5.25;1.35;;;;;;;18.75;45.29;98666.63;4941966;28;20050;-68
2024/03/27 11:06:34;;;;;;;2.63;1.02;;;;;;;18.83;44.96;98681.56;4943716;28;20038;-71
2024/03/27 11:08:59;;;;;;;3.53;1.15;;;;;;;18.83;45.37;98685.03;4945235;28;20043;-66
2024/03/27 11:11:24;;;;;;;3.78;1.20;;;;;;;18.88;45.12;98691.59;4943958;28;20532;-68
2024/03/27 11:13:51;;;;;;;7.25;1.50;;;;;;;18.86;45.31;98681.22;4944512;28;20088;-65
2024/03/27 11:16:21;;;;;;;3.42;1.10;;;;;;;18.72;45.03;98659.06;4945015;28;20154;-65
2024/03/27 11:18:47;;;;;;;2.85;1.10;;;;;;;18.82;45.40;98680.75;4944760;28;20094;-67
2024/03/27 11:21:13;;;;;;;6.05;1.70;;;;;;;18.61;45.11;98646.31;4943151;28;20035;-71
2024/03/27 11:23:41;;;;;;;4.35;1.30;;;;;;;18.76;45.36;98673.56;4944937;28;20437;-70
2024/03/27 11:26:07;;;;;;;2.65;1.00;;;;;;;18.83;45.38;98681.56;4943523;28;20075;-67